ヤクーツク の空港の天気 - METARとTAF

ヤクーツク空港 ( UEEE / YKS ) - ロシア ヤクーツク
飛行場実況気象(Metar)
観測時間08/14 07:00 YAKT (08/13 22:00 UTC)
風向・風速東北東 1m/s
視程10km以上
天気現象
全天の4割程度の雲 雲底高度 1520m
気温17℃
湿度83%
気圧1005hPa
METARUEEE 132200Z 06001MPS 9999 SCT050CB 17/14 Q1005 R23L/09//60 NOSIG RMK QFE745
過去の天気等 Google飛行場航空写真 Wunderground天気予報

過去48時間のMETAR

飛行場予報(TAF)
発表時間: 8/14 05:00 YAKT (8/13 20:00 UTC)
予報対象時間: 14日6時 YAKT ~ 15日12時 YAKT
風向・風速南東 3m/s 瞬間風速 10m/s
視程10km以上
全天の4割程度の積乱雲 雲底高度 610m
全天を覆う雲 雲底高度 2130m
14日6時 YAKT ~ 14日10時 YAKT に一時的に
視程300m
天気現象雷雨 霧
全天を覆う雲 鉛直視程 60m
14日10時 YAKT ~ 14日24時 YAKT に一時的に
風向・風速不定 8m/s
視程3200m
天気現象弱い雷雨
TAF UEEE 132000Z 1321/1503 14003G10MPS 9999 SCT020CB OVC070
TEMPO 1321/1401 0300 TSRA FG VV002
TEMPO 1401/1415 VRB08MPS 3200 -TSRA